CMB810 Details

Departure: Ramstein Air Force Base (ETAR)
Arrival: Joint Base McGuire Dix Lakehurst (KWRI)
Notes: USTRANSCOM CONTRACT FLIGHT


Current Weather Information
ETAR 190756Z 00000KT 9999 CLR 03/00 A3034 RMK AO2A SLP288 T00300004 $
KWRI 190756Z AUTO 00000KT 10SM SCT085 M03/M05 A3033 RMK AO2 SLP272 T10321054